Time;durP1;ratioP1;P1;durP2;ratioP2;P2;SDS_P1;SDS_P2;PMS_P1;PMS_P2;Temp;Humidity;BMP_temperature;BMP_pressure;BME280_temperature;BME280_humidity;BME280_pressure;Samples;Min_cycle;Max_cycle;Signal;HPM_P1;HPM_P2
2020/12/30 00:00:25;;;;;;;18.63;10.83;;;;;;;8.69;92.49;96221.19;8317595;28;20215;-80
2020/12/30 00:04:27;;;;;;;14.53;10.37;;;;;;;5.62;61.63;96215.78;8289050;28;20216;-80
2020/12/30 00:08:29;;;;;;;11.10;7.80;;;;;;;4.97;61.71;96217.41;8285431;28;20567;-80
2020/12/30 00:12:32;;;;;;;10.43;8.30;;;;;;;4.65;61.62;96220.66;8284558;28;21636;-80
2020/12/30 00:16:35;;;;;;;10.73;7.87;;;;;;;4.42;61.89;96231.22;8284379;28;20205;-80
2020/12/30 00:20:36;;;;;;;11.60;8.57;;;;;;;4.21;61.94;96238.19;8285327;28;20206;-80
2020/12/30 00:24:39;;;;;;;11.10;8.40;;;;;;;4.32;62.18;96238.47;8285454;28;20325;-80
2020/12/30 00:28:41;;;;;;;9.10;7.67;;;;;;;4.45;61.68;96244.69;8285812;28;20205;-80
2020/12/30 00:32:45;;;;;;;12.00;7.70;;;;;;;4.53;61.53;96240.94;8283978;28;20225;-80
2020/12/30 00:36:47;;;;;;;10.60;7.77;;;;;;;4.21;62.37;96246.69;8284144;28;20571;-79
2020/12/30 00:40:49;;;;;;;10.07;7.37;;;;;;;4.26;62.27;96236.22;8301836;28;20547;-80
2020/12/30 00:44:50;;;;;;;9.90;7.37;;;;;;;4.42;61.48;96241.47;8318024;28;20575;-80
2020/12/30 00:48:53;;;;;;;9.30;7.67;;;;;;;4.30;62.26;96246.25;8317863;28;20220;-80
2020/12/30 00:52:55;;;;;;;8.33;6.90;;;;;;;4.34;62.26;96244.38;8318737;28;20225;-80
2020/12/30 00:56:56;;;;;;;10.47;7.40;;;;;;;4.05;62.56;96251.66;8320251;28;20201;-80
2020/12/30 01:00:58;;;;;;;11.30;7.80;;;;;;;3.98;62.81;96255.44;8328620;28;20215;-80
2020/12/30 01:05:01;;;;;;;10.83;7.90;;;;;;;3.78;63.19;96256.31;8324700;28;20209;-79
2020/12/30 01:09:05;;;;;;;9.63;7.30;;;;;;;3.89;63.11;96251.53;8322929;28;20201;-79
2020/12/30 01:13:07;;;;;;;9.73;7.40;;;;;;;3.85;63.30;96262.81;8322089;28;20249;-79
2020/12/30 01:17:09;;;;;;;10.20;7.40;;;;;;;3.86;63.54;96253.41;8323387;28;20205;-79
2020/12/30 01:21:12;;;;;;;8.80;7.30;;;;;;;4.06;63.08;96255.91;8321350;28;20205;-79
2020/12/30 01:25:14;;;;;;;10.87;7.70;;;;;;;3.94;63.26;96258.19;8320338;28;20209;-79
2020/12/30 01:29:15;;;;;;;9.70;7.50;;;;;;;3.99;63.31;96257.06;8320874;28;20201;-79
2020/12/30 01:33:17;;;;;;;11.50;6.77;;;;;;;3.97;63.70;96264.00;8320094;28;20597;-79
2020/12/30 01:37:20;;;;;;;9.13;6.70;;;;;;;3.98;63.46;96265.66;8319910;28;20209;-79
2020/12/30 01:41:22;;;;;;;7.17;6.03;;;;;;;3.74;64.28;96259.91;8319591;28;20205;-80
2020/12/30 01:45:23;;;;;;;9.00;6.10;;;;;;;3.64;64.29;96256.09;8320390;28;20209;-79
2020/12/30 01:49:25;;;;;;;7.87;5.73;;;;;;;3.66;64.20;96249.19;8319008;28;20201;-79
2020/12/30 01:53:28;;;;;;;6.40;5.63;;;;;;;3.84;63.85;96256.03;8317651;28;20233;-79
2020/12/30 01:57:30;;;;;;;7.67;5.57;;;;;;;3.99;63.35;96261.38;8317545;28;20212;-79
2020/12/30 02:01:33;;;;;;;10.50;6.17;;;;;;;3.95;63.51;96268.34;8316327;28;20216;-79
2020/12/30 02:05:36;;;;;;;8.20;5.87;;;;;;;4.08;63.50;96268.66;8316490;28;20227;-79
2020/12/30 02:09:40;;;;;;;9.80;6.60;;;;;;;3.96;63.65;96279.44;8315051;28;20205;-79
2020/12/30 02:13:42;;;;;;;10.53;7.10;;;;;;;4.17;62.72;96269.94;8316153;28;20236;-79
2020/12/30 02:17:43;;;;;;;10.57;7.33;;;;;;;4.00;63.59;96269.00;8314726;28;20208;-79
2020/12/30 02:21:45;;;;;;;9.97;6.73;;;;;;;4.22;63.03;96273.13;8315033;28;20212;-79
2020/12/30 02:25:48;;;;;;;8.47;6.33;;;;;;;4.17;63.32;96275.91;8315867;28;20205;-78
2020/12/30 02:29:50;;;;;;;9.23;6.00;;;;;;;4.17;63.16;96275.91;8314526;28;20582;-79
2020/12/30 02:33:52;;;;;;;7.80;5.83;;;;;;;4.36;62.68;96275.91;8311564;28;20225;-79
2020/12/30 02:37:54;;;;;;;9.13;6.23;;;;;;;4.16;63.51;96274.25;8313014;28;20615;-79
2020/12/30 02:41:57;;;;;;;7.83;5.20;;;;;;;4.28;63.04;96271.13;8313315;28;20236;-80
2020/12/30 02:45:58;;;;;;;7.50;5.50;;;;;;;4.12;63.13;96280.41;8316590;28;20207;-80
2020/12/30 02:50:01;;;;;;;9.13;6.03;;;;;;;3.98;64.13;96278.47;8318286;28;20231;-80
2020/12/30 02:54:03;;;;;;;8.67;6.10;;;;;;;3.97;63.54;96283.66;8318021;28;20689;-80
2020/12/30 02:58:05;;;;;;;10.10;7.10;;;;;;;4.01;64.14;96280.88;8318315;28;20197;-79
2020/12/30 03:02:07;;;;;;;8.73;6.53;;;;;;;4.04;63.86;96273.06;8318507;28;20209;-80
2020/12/30 03:06:09;;;;;;;8.27;6.03;;;;;;;3.94;64.00;96282.09;8315919;28;20560;-79
2020/12/30 03:10:11;;;;;;;11.20;6.33;;;;;;;4.00;64.07;96286.91;8314710;28;20225;-80
2020/12/30 03:14:14;;;;;;;8.13;5.93;;;;;;;3.98;63.96;96293.84;8316593;28;20267;-80
2020/12/30 03:18:16;;;;;;;10.10;6.53;;;;;;;3.98;64.17;96295.56;8317884;28;20201;-80
2020/12/30 03:22:18;;;;;;;8.73;6.67;;;;;;;4.05;63.60;96295.22;8319758;28;20204;-80
2020/12/30 03:26:19;;;;;;;11.40;5.67;;;;;;;3.81;64.20;96279.22;8319354;28;20213;-81
2020/12/30 03:30:22;;;;;;;7.90;5.10;;;;;;;3.90;64.06;96291.63;8313770;28;20673;-80
2020/12/30 03:34:24;;;;;;;7.77;5.47;;;;;;;3.96;63.82;96295.66;8312456;28;20229;-80
2020/12/30 03:38:25;;;;;;;9.17;5.53;;;;;;;3.75;64.11;96289.75;8312632;28;20201;-80
2020/12/30 03:42:27;;;;;;;8.70;5.00;;;;;;;3.92;63.55;96294.94;8312369;28;20205;-80
2020/12/30 03:46:30;;;;;;;5.63;4.50;;;;;;;3.90;63.91;96289.06;8312933;28;20208;-80
2020/12/30 03:50:32;;;;;;;6.00;4.80;;;;;;;3.77;63.79;96294.78;8312535;28;20575;-80
2020/12/30 03:54:33;;;;;;;6.27;4.87;;;;;;;3.98;63.29;96295.56;8312069;28;20229;-80
2020/12/30 03:58:35;;;;;;;6.47;4.67;;;;;;;3.95;62.76;96293.97;8312584;28;20331;-80
2020/12/30 04:02:38;;;;;;;6.33;4.70;;;;;;;3.98;62.73;96295.56;8312746;28;20228;-80
2020/12/30 04:06:40;;;;;;;6.80;5.33;;;;;;;3.90;62.84;96289.06;8314249;28;20208;-79
2020/12/30 04:10:41;;;;;;;5.37;4.23;;;;;;;3.92;62.61;96300.06;8312653;28;20255;-79
2020/12/30 04:14:43;;;;;;;6.60;5.07;;;;;;;3.89;62.77;96300.19;8313061;28;20250;-79
2020/12/30 04:18:46;;;;;;;5.80;4.00;;;;;;;3.80;62.72;96307.47;8311270;28;20212;-79
2020/12/30 04:22:48;;;;;;;5.50;4.43;;;;;;;3.77;62.90;96312.69;8316293;28;20648;-80
2020/12/30 04:26:49;;;;;;;6.70;4.57;;;;;;;3.81;62.82;96317.63;8311604;28;20262;-80
2020/12/30 04:30:51;;;;;;;4.83;4.23;;;;;;;3.45;64.41;96330.28;8308590;28;20641;-80
2020/12/30 04:34:54;;;;;;;5.43;4.50;;;;;;;3.41;63.93;96324.47;8316313;28;20225;-81
2020/12/30 04:38:55;;;;;;;5.97;4.23;;;;;;;3.51;63.91;96333.41;8317216;28;20200;-81
2020/12/30 04:43:00;;;;;;;5.57;4.00;;;;;;;3.39;64.16;96333.94;8317554;28;20207;-80
2020/12/30 04:47:03;;;;;;;7.87;4.47;;;;;;;3.47;64.03;96326.75;8317355;28;20553;-80
2020/12/30 04:51:06;;;;;;;7.17;4.73;;;;;;;3.44;63.86;96341.41;8316782;28;20201;-80
2020/12/30 04:55:08;;;;;;;6.10;4.20;;;;;;;3.10;65.12;96335.13;8317265;28;20216;-81
2020/12/30 04:59:11;;;;;;;6.00;4.00;;;;;;;3.39;63.99;96349.28;8316350;28;20257;-80
2020/12/30 05:03:14;;;;;;;4.93;3.90;;;;;;;3.39;63.98;96345.88;8318310;28;20209;-81
2020/12/30 05:07:17;;;;;;;5.83;4.07;;;;;;;3.43;63.97;96347.44;8317789;28;20208;-81
2020/12/30 05:11:21;;;;;;;7.30;4.50;;;;;;;3.34;63.98;96356.31;8318553;28;20583;-80
2020/12/30 05:15:23;;;;;;;6.43;4.50;;;;;;;3.30;64.21;96367.56;8319644;28;20244;-81
2020/12/30 05:19:27;;;;;;;5.33;4.50;;;;;;;3.00;65.33;96362.78;8319758;28;20247;-80
2020/12/30 05:23:30;;;;;;;7.63;4.40;;;;;;;2.84;66.05;96364.31;8321460;28;20220;-80
2020/12/30 05:27:32;;;;;;;7.00;5.17;;;;;;;3.03;65.54;96369.53;8320568;28;20212;-80
2020/12/30 05:31:34;;;;;;;6.80;4.87;;;;;;;3.01;64.76;96368.72;8321905;28;20232;-80
2020/12/30 05:35:35;;;;;;;6.50;4.70;;;;;;;3.29;64.30;96386.38;8324020;28;20220;-80
2020/12/30 05:39:38;;;;;;;6.40;4.57;;;;;;;3.21;64.39;96381.56;8322717;28;20213;-80
2020/12/30 05:43:41;;;;;;;6.33;4.53;;;;;;;2.95;65.47;96397.94;8319868;28;20213;-80
2020/12/30 05:47:45;;;;;;;5.53;4.57;;;;;;;3.17;65.17;96394.56;8319843;28;20213;-80
2020/12/30 05:51:48;;;;;;;6.53;4.67;;;;;;;3.12;65.08;96393.00;8317240;28;20229;-80
2020/12/30 05:55:52;;;;;;;6.90;5.00;;;;;;;3.36;64.78;96407.44;8318674;28;20675;-80
2020/12/30 05:59:56;;;;;;;8.13;6.10;;;;;;;3.41;64.32;96406.34;8319168;28;20204;-81
2020/12/30 06:04:14;;;;;;;5.60;4.80;;;;;;;3.04;65.77;96415.47;8318712;28;20201;-80
2020/12/30 06:08:18;;;;;;;6.30;4.60;;;;;;;3.20;65.45;96422.56;8319186;28;20212;-80
2020/12/30 06:12:26;;;;;;;8.27;5.73;;;;;;;2.82;66.47;96428.28;8319809;28;20225;-80
2020/12/30 06:16:30;;;;;;;6.90;5.30;;;;;;;2.87;66.90;96439.16;8318648;28;20200;-81
2020/12/30 06:20:32;;;;;;;6.47;4.93;;;;;;;3.23;65.67;96435.22;8316925;28;20247;-80
2020/12/30 06:24:34;;;;;;;8.33;5.43;;;;;;;3.07;66.07;96448.63;8318530;28;20200;-81
2020/12/30 06:28:37;;;;;;;6.80;5.80;;;;;;;2.42;67.95;96444.25;8318005;28;20200;-81
2020/12/30 06:32:38;;;;;;;6.43;5.13;;;;;;;2.81;66.69;96447.06;8320617;28;20235;-80
2020/12/30 06:36:41;;;;;;;7.80;4.93;;;;;;;2.71;67.04;96448.31;8341822;28;20199;-80
2020/12/30 06:40:52;;;;;;;6.60;5.40;;;;;;;2.70;67.05;96460.25;8335681;28;20205;-80
2020/12/30 06:44:54;;;;;;;8.50;5.67;;;;;;;2.96;66.65;96455.06;8311191;28;20201;-80
2020/12/30 06:48:57;;;;;;;7.13;5.80;;;;;;;2.63;67.98;96475.88;8310234;28;20204;-81
2020/12/30 06:53:24;;;;;;;9.80;6.40;;;;;;;3.03;66.75;96464.97;8309674;28;20688;-81
2020/12/30 06:57:37;;;;;;;8.40;6.60;;;;;;;3.12;66.18;96464.63;8309667;28;20201;-80
2020/12/30 07:01:56;;;;;;;7.30;6.60;;;;;;;2.90;66.45;96479.94;8311800;28;20561;-81
2020/12/30 07:06:25;;;;;;;8.53;6.90;;;;;;;3.12;66.32;96490.22;8310844;28;20202;-81
2020/12/30 07:10:26;;;;;;;9.20;7.40;;;;;;;2.85;67.16;96493.78;8311888;28;20193;-80
2020/12/30 07:14:29;;;;;;;10.73;7.83;;;;;;;2.86;67.14;96500.59;8310822;28;20692;-81
2020/12/30 07:18:33;;;;;;;8.50;7.20;;;;;;;3.11;66.70;96496.22;8310091;28;20205;-81
2020/12/30 07:22:34;;;;;;;10.43;7.17;;;;;;;3.35;65.99;96503.84;8310532;28;20220;-80
2020/12/30 07:26:37;;;;;;;9.70;6.90;;;;;;;3.52;65.46;96511.69;8313202;28;20198;-80
2020/12/30 07:30:38;;;;;;;8.20;7.23;;;;;;;3.67;65.13;96507.66;8313652;28;20212;-81
2020/12/30 07:34:42;;;;;;;8.13;7.30;;;;;;;3.75;65.23;96509.09;8313725;28;20228;-81
2020/12/30 07:38:44;;;;;;;7.97;7.17;;;;;;;3.79;65.26;96508.94;8314749;28;20201;-79
2020/12/30 07:42:55;;;;;;;8.57;7.67;;;;;;;3.97;64.64;96517.56;8315312;28;20205;-80
2020/12/30 07:47:01;;;;;;;8.83;7.90;;;;;;;3.98;64.98;96518.41;8316573;28;20209;-80
2020/12/30 07:51:05;;;;;;;9.80;8.60;;;;;;;4.07;64.90;96533.41;8320953;28;20236;-81
2020/12/30 07:55:07;;;;;;;9.27;8.33;;;;;;;4.05;64.34;96536.00;8318759;28;20305;-80
2020/12/30 07:59:10;;;;;;;10.23;9.13;;;;;;;3.98;64.46;96538.91;8318006;28;20243;-79
2020/12/30 08:03:12;;;;;;;9.80;8.10;;;;;;;3.96;64.77;96543.25;8309683;28;20216;-79
2020/12/30 08:07:16;;;;;;;9.57;7.90;;;;;;;4.43;63.67;96546.41;8311368;28;20209;-79
2020/12/30 08:11:20;;;;;;;30.63;23.63;;;;;;;4.39;63.16;96544.88;8311600;28;20232;-79
2020/12/30 08:15:23;;;;;;;13.97;12.37;;;;;;;4.46;63.16;96546.28;8312218;28;20240;-80
2020/12/30 08:19:29;;;;;;;15.60;13.77;;;;;;;4.76;62.46;96545.88;8312136;28;20212;-80
2020/12/30 08:23:32;;;;;;;13.03;10.30;;;;;;;4.73;63.02;96555.44;8311848;28;20209;-80
2020/12/30 08:27:34;;;;;;;10.87;9.77;;;;;;;4.87;62.42;96551.38;8312200;28;20197;-80
2020/12/30 08:31:42;;;;;;;12.60;10.97;;;;;;;4.94;62.15;96562.16;8312578;28;20197;-80
2020/12/30 08:35:46;;;;;;;15.30;13.80;;;;;;;5.09;62.19;96568.34;8313483;28;20208;-79
2020/12/30 08:39:52;;;;;;;10.07;8.43;;;;;;;5.12;61.93;96565.63;8313900;28;20327;-79
2020/12/30 08:43:57;;;;;;;9.47;8.57;;;;;;;5.27;61.77;96572.66;8316208;28;20201;-80
2020/12/30 08:48:10;;;;;;;10.13;9.13;;;;;;;5.46;61.50;96570.09;8318240;28;20197;-80
2020/12/30 08:52:19;;;;;;;9.33;8.00;;;;;;;5.50;61.31;96578.47;8320361;28;20316;-80
2020/12/30 08:56:22;;;;;;;9.93;6.83;;;;;;;5.83;60.64;96582.94;8317655;28;20273;-80
2020/12/30 09:00:26;;;;;;;7.30;6.57;;;;;;;5.86;60.97;96577.66;8317132;28;20205;-80
2020/12/30 09:04:28;;;;;;;8.40;6.60;;;;;;;5.98;60.07;96587.41;8322900;28;20201;-80
2020/12/30 09:08:29;;;;;;;20.17;14.17;;;;;;;5.52;61.22;96576.69;8317035;28;20205;-80
2020/12/30 09:12:32;;;;;;;16.40;11.43;;;;;;;5.43;62.08;96587.38;8315775;28;20229;-80
2020/12/30 09:16:34;;;;;;;9.37;7.60;;;;;;;5.65;61.34;96579.50;8314489;28;20685;-79
2020/12/30 09:20:35;;;;;;;9.90;8.23;;;;;;;5.55;61.49;96591.09;8318900;28;20201;-79
2020/12/30 09:24:38;;;;;;;8.07;7.27;;;;;;;5.02;62.37;96593.44;8324587;28;20229;-79
2020/12/30 09:28:41;;;;;;;9.27;7.57;;;;;;;5.03;62.22;96595.13;8324000;28;20212;-79
2020/12/30 09:32:44;;;;;;;8.47;7.50;;;;;;;5.11;62.21;96596.53;8323348;28;20220;-80
2020/12/30 09:36:54;;;;;;;9.07;8.17;;;;;;;4.86;62.87;96602.72;8323529;28;20235;-80
2020/12/30 09:40:55;;;;;;;9.10;8.20;;;;;;;4.87;62.61;96618.06;8324613;28;20238;-79
2020/12/30 09:44:58;;;;;;;11.20;9.10;;;;;;;5.09;62.22;96628.22;8321873;28;20212;-79
2020/12/30 09:49:00;;;;;;;10.70;8.93;;;;;;;4.90;62.68;96625.59;8323548;28;20190;-80
2020/12/30 09:53:02;;;;;;;9.60;8.60;;;;;;;5.12;62.65;96622.09;8324887;28;20225;-80
2020/12/30 09:57:04;;;;;;;10.67;8.87;;;;;;;5.00;62.37;96626.03;8323519;28;20239;-80
2020/12/30 10:01:07;;;;;;;8.90;8.00;;;;;;;5.16;62.18;96622.78;8323289;28;20209;-80
2020/12/30 10:05:09;;;;;;;10.97;8.53;;;;;;;5.31;61.51;96624.69;8325098;28;20208;-80
2020/12/30 10:09:13;;;;;;;9.93;7.67;;;;;;;5.38;61.54;96618.38;8322696;28;20201;-80
2020/12/30 10:13:14;;;;;;;13.53;9.30;;;;;;;5.19;62.11;96612.41;8323169;28;20244;-80
2020/12/30 10:17:17;;;;;;;12.23;9.13;;;;;;;5.14;62.75;96610.06;8322749;28;20217;-80
2020/12/30 10:21:19;;;;;;;15.13;12.13;;;;;;;4.99;62.96;96616.69;8320234;28;20212;-80
2020/12/30 10:25:21;;;;;;;10.70;9.60;;;;;;;5.25;62.14;96617.25;8318741;28;20611;-79
2020/12/30 10:29:22;;;;;;;10.83;9.80;;;;;;;5.71;62.08;96606.63;8318038;28;20208;-79
2020/12/30 10:33:25;;;;;;;17.37;12.93;;;;;;;5.53;61.54;96616.84;8317453;28;20229;-79
2020/12/30 10:37:27;;;;;;;14.33;12.20;;;;;;;5.41;62.30;96622.56;8318761;28;20598;-79
2020/12/30 10:41:29;;;;;;;9.67;8.67;;;;;;;5.73;61.78;96621.09;8321347;28;20201;-80
2020/12/30 10:45:32;;;;;;;12.07;8.93;;;;;;;5.93;61.23;96609.88;8319547;28;20209;-79
2020/12/30 10:49:34;;;;;;;10.10;8.27;;;;;;;5.89;61.01;96616.06;8318808;28;20197;-80
2020/12/30 10:53:36;;;;;;;9.97;8.13;;;;;;;5.90;61.38;96615.13;8318747;28;20224;-79
2020/12/30 10:57:38;;;;;;;10.87;9.77;;;;;;;5.91;60.84;96611.69;8318978;28;20221;-80
2020/12/30 11:01:39;;;;;;;12.30;9.87;;;;;;;6.15;62.44;96612.28;8317896;28;20197;-80
2020/12/30 11:05:42;;;;;;;11.70;9.40;;;;;;;7.42;64.40;96610.16;8315924;28;20212;-80
2020/12/30 11:09:44;;;;;;;10.30;9.17;;;;;;;7.24;59.40;96611.94;8313232;28;20220;-80
2020/12/30 11:13:58;;;;;;;8.50;7.60;;;;;;;6.61;59.87;96617.72;8313390;28;20233;-80
2020/12/30 11:17:59;;;;;;;10.57;8.20;;;;;;;6.46;60.12;96626.22;8314789;28;20204;-79
2020/12/30 11:22:02;;;;;;;9.10;8.20;;;;;;;6.52;59.75;96627.66;8316264;28;20201;-80
2020/12/30 11:26:04;;;;;;;11.17;9.47;;;;;;;6.57;60.01;96630.84;8316282;28;20201;-80
2020/12/30 11:30:06;;;;;;;8.73;7.67;;;;;;;6.73;59.51;96621.44;8316246;28;20204;-80
2020/12/30 11:34:08;;;;;;;8.93;7.77;;;;;;;6.77;59.92;96622.94;8314474;28;20225;-80
2020/12/30 11:38:11;;;;;;;13.87;12.47;;;;;;;6.87;59.53;96623.28;8315536;28;20216;-79
2020/12/30 11:42:12;;;;;;;10.53;8.50;;;;;;;6.81;59.39;96619.28;8317057;28;20308;-80
2020/12/30 11:46:15;;;;;;;9.27;7.57;;;;;;;6.83;59.77;96626.94;8315562;28;20221;-80
2020/12/30 11:50:17;;;;;;;8.50;7.20;;;;;;;6.70;60.07;96619.03;8313628;28;20308;-79
2020/12/30 11:54:19;;;;;;;8.83;6.87;;;;;;;6.98;59.94;96613.28;8316063;28;20615;-81
2020/12/30 11:58:21;;;;;;;8.07;6.50;;;;;;;6.99;58.92;96616.72;8311987;28;20205;-79
2020/12/30 12:02:23;;;;;;;6.43;5.10;;;;;;;6.93;58.51;96610.13;8316484;28;20208;-81
2020/12/30 12:06:25;;;;;;;6.77;5.53;;;;;;;7.03;58.70;96618.22;8315673;28;20239;-81
2020/12/30 12:10:27;;;;;;;9.47;6.50;;;;;;;7.04;58.47;96610.41;8315441;28;20556;-80
2020/12/30 12:14:29;;;;;;;7.43;6.57;;;;;;;7.08;58.71;96612.81;8316759;28;20237;-80
2020/12/30 12:18:31;;;;;;;10.40;7.30;;;;;;;7.12;59.02;96629.75;8313629;28;20204;-80
2020/12/30 12:22:33;;;;;;;6.17;5.23;;;;;;;7.11;58.38;96626.38;8315676;28;20211;-79
2020/12/30 12:26:35;;;;;;;6.70;4.90;;;;;;;7.10;58.44;96619.56;8315501;28;20227;-80
2020/12/30 12:30:37;;;;;;;7.87;6.00;;;;;;;7.10;58.25;96617.00;8316643;28;20227;-79
2020/12/30 12:34:41;;;;;;;8.67;6.03;;;;;;;7.21;58.12;96619.81;8321354;28;20217;-82
2020/12/30 12:38:45;;;;;;;6.50;5.83;;;;;;;7.17;58.31;96628.63;8316292;28;20208;-82
2020/12/30 12:42:48;;;;;;;8.13;6.60;;;;;;;7.29;58.19;96616.88;8313730;28;20241;-82
2020/12/30 12:46:50;;;;;;;5.33;4.47;;;;;;;7.36;57.87;96610.44;8315802;28;20197;-81
2020/12/30 12:50:52;;;;;;;8.70;6.47;;;;;;;7.44;58.01;96618.63;8317558;28;20234;-81
2020/12/30 12:54:54;;;;;;;7.77;5.60;;;;;;;7.47;58.04;96625.34;8317154;28;20221;-80
2020/12/30 12:58:57;;;;;;;7.93;5.47;;;;;;;7.39;58.31;96623.19;8325679;28;20197;-80
2020/12/30 13:03:00;;;;;;;7.73;5.00;;;;;;;7.39;58.02;96628.34;8320647;28;20225;-81
2020/12/30 13:07:03;;;;;;;9.57;6.70;;;;;;;7.43;58.46;96634.16;8322629;28;20229;-81
2020/12/30 13:11:05;;;;;;;17.27;12.97;;;;;;;7.44;59.00;96635.81;8322618;28;20205;-81
2020/12/30 13:15:09;;;;;;;14.73;9.88;;;;;;;7.76;57.66;96631.50;8321285;28;20445;-81
2020/12/30 13:19:11;;;;;;;6.77;4.90;;;;;;;7.68;58.19;96638.00;8316790;28;20204;-80
2020/12/30 13:23:12;;;;;;;6.63;4.57;;;;;;;7.72;58.22;96642.06;8312520;28;20232;-81
2020/12/30 13:27:14;;;;;;;9.13;5.60;;;;;;;7.60;58.75;96639.25;8318034;28;20527;-81
2020/12/30 13:31:17;;;;;;;6.50;5.20;;;;;;;7.63;57.81;96643.38;8319622;28;20201;-82
2020/12/30 13:35:19;;;;;;;9.07;6.30;;;;;;;7.70;58.53;96647.31;8321457;28;20588;-81
2020/12/30 13:39:21;;;;;;;6.63;4.93;;;;;;;7.69;58.11;96657.69;8321670;28;20645;-82
2020/12/30 13:43:23;;;;;;;6.33;4.27;;;;;;;7.64;58.09;96648.47;8300477;28;20233;-81
2020/12/30 13:47:25;;;;;;;5.83;4.00;;;;;;;7.78;58.09;96655.44;8289571;28;20202;-81
2020/12/30 13:51:27;;;;;;;7.17;5.00;;;;;;;7.68;57.42;96650.88;8315439;28;20668;-82
2020/12/30 13:55:29;;;;;;;7.67;4.43;;;;;;;7.69;58.19;96666.28;8320345;28;20691;-82
2020/12/30 13:59:31;;;;;;;5.50;4.67;;;;;;;7.68;57.88;96668.94;8319435;28;20217;-82
2020/12/30 14:03:34;;;;;;;7.00;4.20;;;;;;;7.54;57.77;96679.94;8320913;28;20205;-82
2020/12/30 14:07:37;;;;;;;5.53;3.40;;;;;;;7.52;57.64;96679.19;8320156;28;20205;-82
2020/12/30 14:11:38;;;;;;;5.93;3.43;;;;;;;7.40;57.77;96678.09;8322820;28;20697;-82
2020/12/30 14:15:40;;;;;;;5.30;3.63;;;;;;;7.46;57.75;96682.09;8322769;28;20252;-82
2020/12/30 14:19:43;;;;;;;5.80;3.40;;;;;;;7.91;55.69;96678.81;8318684;28;20424;-81
2020/12/30 14:23:45;;;;;;;8.83;5.20;;;;;;;7.53;56.66;96684.25;8319779;28;20221;-81
2020/12/30 14:27:47;;;;;;;7.27;4.63;;;;;;;7.52;56.76;96694.66;8319814;28;20664;-81
2020/12/30 14:31:49;;;;;;;7.47;4.40;;;;;;;7.37;57.30;96681.66;8318780;28;20558;-82
2020/12/30 14:35:52;;;;;;;5.67;3.37;;;;;;;7.38;57.11;96697.94;8320589;28;20228;-81
2020/12/30 14:39:54;;;;;;;5.60;3.40;;;;;;;7.85;55.34;96702.34;8319053;28;20435;-81
2020/12/30 14:43:56;;;;;;;5.17;2.80;;;;;;;7.35;56.83;96706.69;8318364;28;20679;-81
2020/12/30 14:47:58;;;;;;;4.73;2.57;;;;;;;7.34;57.23;96715.28;8321847;28;20205;-81
2020/12/30 14:52:00;;;;;;;4.83;2.40;;;;;;;7.36;56.78;96715.22;8323021;28;20216;-81
2020/12/30 14:56:02;;;;;;;4.70;2.17;;;;;;;7.32;56.66;96718.88;8321280;28;20229;-81
2020/12/30 15:00:05;;;;;;;4.87;2.17;;;;;;;7.23;56.95;96723.59;8292841;28;20237;-81
2020/12/30 15:04:07;;;;;;;6.73;2.60;;;;;;;7.21;57.09;96730.53;8282835;28;20198;-80
2020/12/30 15:08:09;;;;;;;5.73;3.10;;;;;;;7.27;57.42;96731.97;8282032;28;20221;-80
2020/12/30 15:12:11;;;;;;;8.00;6.53;;;;;;;7.25;57.97;96728.63;8284932;28;20233;-80
2020/12/30 15:16:13;;;;;;;6.23;3.20;;;;;;;7.19;57.62;96736.69;8301615;28;20252;-81
2020/12/30 15:20:14;;;;;;;5.43;2.57;;;;;;;7.12;57.45;96743.91;8315618;28;20197;-81
2020/12/30 15:24:17;;;;;;;5.53;2.70;;;;;;;7.08;57.24;96742.34;8317728;28;20232;-81
2020/12/30 15:28:19;;;;;;;3.10;2.20;;;;;;;7.07;57.09;96750.19;8317193;28;20209;-81
2020/12/30 15:32:21;;;;;;;5.67;3.07;;;;;;;7.04;57.20;96758.88;8316184;28;20580;-81
2020/12/30 15:36:22;;;;;;;4.00;2.50;;;;;;;7.03;56.82;96759.78;8316330;28;20233;-81
2020/12/30 15:40:25;;;;;;;6.27;2.90;;;;;;;6.92;56.83;96762.06;8314534;28;20205;-81
2020/12/30 15:44:27;;;;;;;5.50;3.03;;;;;;;6.95;56.84;96772.19;8314031;28;20212;-81
2020/12/30 15:48:28;;;;;;;6.63;3.85;;;;;;;7.33;56.07;96770.31;8316235;28;20465;-81
2020/12/30 15:52:30;;;;;;;10.30;6.07;;;;;;;7.09;57.42;96786.97;8316425;28;20201;-81
2020/12/30 15:56:33;;;;;;;15.27;9.30;;;;;;;7.05;57.63;96792.25;8316613;28;20201;-81
2020/12/30 16:00:34;;;;;;;10.03;6.50;;;;;;;7.11;57.71;96790.31;8316985;28;20212;-81
2020/12/30 16:04:37;;;;;;;17.70;4.60;;;;;;;9.25;75.20;96792.66;8312465;28;20255;-81
2020/12/30 16:08:39;;;;;;;8.07;4.37;;;;;;;8.82;54.82;96800.28;8313990;28;20603;-81
2020/12/30 16:12:41;;;;;;;7.60;4.83;;;;;;;8.06;55.12;96805.25;8319175;28;20245;-81
2020/12/30 16:16:43;;;;;;;6.20;3.90;;;;;;;7.71;55.93;96811.34;8320146;28;20649;-81
2020/12/30 16:20:45;;;;;;;5.33;3.27;;;;;;;7.51;56.14;96816.66;8320398;28;20208;-81
2020/12/30 16:24:47;;;;;;;6.03;3.50;;;;;;;7.43;56.45;96810.13;8316774;28;20212;-81
2020/12/30 16:28:49;;;;;;;7.03;3.80;;;;;;;7.33;56.34;96818.38;8318599;28;20217;-81
2020/12/30 16:32:52;;;;;;;6.83;3.37;;;;;;;7.26;56.85;96819.63;8318242;28;20212;-81
2020/12/30 16:36:56;;;;;;;6.53;3.60;;;;;;;7.19;56.82;96819.06;8316367;28;20248;-81
2020/12/30 16:40:58;;;;;;;5.40;3.20;;;;;;;7.15;57.00;96815.81;8315863;28;20212;-81
2020/12/30 16:45:01;;;;;;;5.10;3.00;;;;;;;7.11;57.32;96824.59;8319286;28;20209;-81
2020/12/30 16:49:02;;;;;;;6.23;3.90;;;;;;;7.07;57.49;96824.84;8319684;28;20201;-81
2020/12/30 16:53:04;;;;;;;7.63;3.67;;;;;;;7.00;57.51;96819.13;8320410;28;20228;-82
2020/12/30 16:57:06;;;;;;;5.35;3.25;;;;;;;7.37;56.38;96820.75;8318028;28;20448;-82
2020/12/30 17:01:09;;;;;;;5.70;3.13;;;;;;;7.02;57.59;96828.44;8318000;28;20220;-82
2020/12/30 17:05:11;;;;;;;5.30;3.72;;;;;;;7.39;56.50;96829.22;8316103;28;20767;-82
2020/12/30 17:09:13;;;;;;;6.73;4.00;;;;;;;7.51;56.31;96834.69;8319815;28;20435;-81
2020/12/30 17:13:14;;;;;;;5.80;3.20;;;;;;;7.11;57.55;96841.78;8320743;28;20237;-81
2020/12/30 17:17:17;;;;;;;8.03;3.90;;;;;;;7.04;57.44;96838.66;8317138;28;20224;-82
2020/12/30 17:21:19;;;;;;;6.33;3.70;;;;;;;6.95;58.00;96845.13;8316464;28;20205;-82
2020/12/30 17:25:21;;;;;;;7.67;3.10;;;;;;;6.85;58.08;96837.00;8318207;28;20591;-82
2020/12/30 17:29:23;;;;;;;6.90;3.17;;;;;;;6.95;58.02;96844.25;8313282;28;20224;-82
2020/12/30 17:33:26;;;;;;;5.90;3.80;;;;;;;6.79;58.25;96842.41;8281848;28;20233;-82
2020/12/30 17:37:34;;;;;;;7.13;4.90;;;;;;;6.75;58.42;96847.78;8283644;28;20210;-81
2020/12/30 17:41:37;;;;;;;6.50;4.40;;;;;;;6.79;58.38;96855.28;8318350;28;20200;-83
2020/12/30 17:45:39;;;;;;;5.93;3.28;;;;;;;6.88;58.18;96855.78;8322146;28;20884;-81
2020/12/30 17:49:43;;;;;;;7.97;3.90;;;;;;;6.66;58.87;96864.47;8322503;28;20571;-82
2020/12/30 17:53:45;;;;;;;5.77;3.17;;;;;;;6.64;58.88;96864.56;8320193;28;20239;-82
2020/12/30 17:57:47;;;;;;;6.57;3.90;;;;;;;6.63;58.94;96868.03;8322447;28;20236;-82
2020/12/30 18:01:50;;;;;;;4.93;3.63;;;;;;;6.74;58.93;96866.69;8320821;28;20303;-82
2020/12/30 18:05:53;;;;;;;4.40;3.60;;;;;;;6.72;58.82;96874.50;8320521;28;20201;-81
2020/12/30 18:09:56;;;;;;;5.43;3.30;;;;;;;6.54;59.17;96865.88;8320475;28;20205;-81
2020/12/30 18:13:58;;;;;;;4.33;3.40;;;;;;;6.65;58.85;96867.97;8320966;28;20248;-80
2020/12/30 18:18:00;;;;;;;7.37;4.43;;;;;;;6.59;58.97;96878.53;8322018;28;20229;-82
2020/12/30 18:22:02;;;;;;;8.27;4.43;;;;;;;6.61;59.36;96877.56;8320933;28;20205;-80
2020/12/30 18:26:04;;;;;;;7.83;4.70;;;;;;;6.52;59.57;96882.28;8318673;28;20209;-81
2020/12/30 18:30:06;;;;;;;6.50;4.20;;;;;;;6.63;59.13;96883.47;8318541;28;20956;-81
2020/12/30 18:34:08;;;;;;;5.47;3.47;;;;;;;6.77;58.70;96893.13;8316043;28;20436;-80
2020/12/30 18:38:13;;;;;;;5.82;3.65;;;;;;;7.13;57.19;96896.63;8314874;28;20824;-81
2020/12/30 18:42:15;;;;;;;4.47;3.27;;;;;;;6.76;58.86;96896.59;8318504;28;20205;-80
2020/12/30 18:46:17;;;;;;;5.07;3.20;;;;;;;6.59;58.76;96899.13;8318674;28;20205;-80
2020/12/30 18:50:19;;;;;;;6.00;3.20;;;;;;;6.50;58.84;96902.09;8318964;28;20664;-79
2020/12/30 18:54:21;;;;;;;4.97;3.30;;;;;;;6.66;59.17;96905.63;8310255;28;20225;-79
2020/12/30 18:58:23;;;;;;;6.70;5.00;;;;;;;6.65;59.05;96904.81;8305950;28;20202;-79
2020/12/30 19:02:24;;;;;;;5.20;4.10;;;;;;;6.55;58.95;96910.44;8308796;28;20308;-79
2020/12/30 19:06:28;;;;;;;6.83;4.00;;;;;;;6.60;59.54;96914.47;8311549;28;20213;-79
2020/12/30 19:10:34;;;;;;;5.47;3.80;;;;;;;6.50;59.35;96912.41;8309234;28;20296;-79